sensor_id;sensor_type;location;lat;lon;timestamp;P1;durP1;ratioP1;P2;durP2;ratioP2
31782;SDS011;18351;47.560;9.708;2023-08-31T00:01:46;3.53;;;2.88;;
31782;SDS011;18351;47.560;9.708;2023-08-31T00:04:13;3.17;;;2.50;;
31782;SDS011;18351;47.560;9.708;2023-08-31T00:06:40;3.33;;;2.70;;
31782;SDS011;18351;47.560;9.708;2023-08-31T00:09:06;3.42;;;2.92;;
31782;SDS011;18351;47.560;9.708;2023-08-31T00:11:35;5.60;;;3.10;;
31782;SDS011;18351;47.560;9.708;2023-08-31T00:14:01;4.50;;;2.80;;
31782;SDS011;18351;47.560;9.708;2023-08-31T00:16:26;4.00;;;2.80;;
31782;SDS011;18351;47.560;9.708;2023-08-31T00:18:52;6.20;;;3.03;;
31782;SDS011;18351;47.560;9.708;2023-08-31T00:21:19;3.70;;;2.97;;
31782;SDS011;18351;47.560;9.708;2023-08-31T00:23:46;5.80;;;3.20;;
31782;SDS011;18351;47.560;9.708;2023-08-31T00:26:12;5.50;;;2.72;;
31782;SDS011;18351;47.560;9.708;2023-08-31T00:28:37;3.15;;;2.75;;
31782;SDS011;18351;47.560;9.708;2023-08-31T00:31:03;3.42;;;3.08;;
31782;SDS011;18351;47.560;9.708;2023-08-31T00:33:29;3.22;;;2.90;;
31782;SDS011;18351;47.560;9.708;2023-08-31T00:35:55;3.20;;;2.70;;
31782;SDS011;18351;47.560;9.708;2023-08-31T00:38:26;5.78;;;3.25;;
31782;SDS011;18351;47.560;9.708;2023-08-31T00:40:52;4.30;;;2.65;;
31782;SDS011;18351;47.560;9.708;2023-08-31T00:43:19;5.05;;;2.90;;
31782;SDS011;18351;47.560;9.708;2023-08-31T00:45:46;3.40;;;2.90;;
31782;SDS011;18351;47.560;9.708;2023-08-31T00:48:14;3.22;;;2.70;;
31782;SDS011;18351;47.560;9.708;2023-08-31T00:50:42;6.25;;;3.90;;
31782;SDS011;18351;47.560;9.708;2023-08-31T00:53:11;3.47;;;2.70;;
31782;SDS011;18351;47.560;9.708;2023-08-31T00:55:37;5.32;;;2.72;;
31782;SDS011;18351;47.560;9.708;2023-08-31T00:58:05;2.60;;;2.40;;
31782;SDS011;18351;47.560;9.708;2023-08-31T01:06:07;3.90;;;2.95;;
31782;SDS011;18351;47.560;9.708;2023-08-31T01:09:13;4.38;;;3.00;;
31782;SDS011;18351;47.560;9.708;2023-08-31T01:14:20;3.00;;;2.70;;
31782;SDS011;18351;47.560;9.708;2023-08-31T01:16:49;3.90;;;2.88;;
31782;SDS011;18351;47.560;9.708;2023-08-31T01:19:30;5.30;;;3.33;;
31782;SDS011;18351;47.560;9.708;2023-08-31T01:22:07;6.32;;;2.78;;
31782;SDS011;18351;47.560;9.708;2023-08-31T01:24:36;3.85;;;2.55;;
31782;SDS011;18351;47.560;9.708;2023-08-31T01:27:03;5.47;;;2.90;;
31782;SDS011;18351;47.560;9.708;2023-08-31T01:29:29;4.25;;;2.90;;
31782;SDS011;18351;47.560;9.708;2023-08-31T01:31:55;4.57;;;2.72;;
31782;SDS011;18351;47.560;9.708;2023-08-31T01:34:21;3.40;;;2.92;;
31782;SDS011;18351;47.560;9.708;2023-08-31T01:36:47;4.35;;;2.85;;
31782;SDS011;18351;47.560;9.708;2023-08-31T01:39:23;3.33;;;2.70;;
31782;SDS011;18351;47.560;9.708;2023-08-31T01:41:58;2.97;;;2.67;;
31782;SDS011;18351;47.560;9.708;2023-08-31T01:47:01;4.22;;;2.80;;
31782;SDS011;18351;47.560;9.708;2023-08-31T01:49:37;3.28;;;2.47;;
31782;SDS011;18351;47.560;9.708;2023-08-31T01:52:04;4.30;;;3.23;;
31782;SDS011;18351;47.560;9.708;2023-08-31T01:54:30;2.90;;;2.60;;
31782;SDS011;18351;47.560;9.708;2023-08-31T01:56:56;3.40;;;2.90;;
31782;SDS011;18351;47.560;9.708;2023-08-31T01:59:21;3.72;;;2.53;;
31782;SDS011;18351;47.560;9.708;2023-08-31T02:01:47;4.63;;;2.95;;
31782;SDS011;18351;47.560;9.708;2023-08-31T02:04:12;2.95;;;2.58;;
31782;SDS011;18351;47.560;9.708;2023-08-31T02:06:38;4.75;;;2.55;;
31782;SDS011;18351;47.560;9.708;2023-08-31T02:09:04;4.50;;;3.15;;
31782;SDS011;18351;47.560;9.708;2023-08-31T02:11:30;3.08;;;2.42;;
31782;SDS011;18351;47.560;9.708;2023-08-31T02:13:56;2.90;;;2.60;;
31782;SDS011;18351;47.560;9.708;2023-08-31T02:16:23;4.70;;;2.88;;
31782;SDS011;18351;47.560;9.708;2023-08-31T02:18:49;3.30;;;3.00;;
31782;SDS011;18351;47.560;9.708;2023-08-31T02:21:14;5.07;;;3.28;;
31782;SDS011;18351;47.560;9.708;2023-08-31T02:23:40;8.77;;;3.08;;
31782;SDS011;18351;47.560;9.708;2023-08-31T02:26:05;3.95;;;3.30;;
31782;SDS011;18351;47.560;9.708;2023-08-31T02:28:31;4.30;;;3.00;;
31782;SDS011;18351;47.560;9.708;2023-08-31T02:30:57;3.42;;;3.10;;
31782;SDS011;18351;47.560;9.708;2023-08-31T02:33:24;5.43;;;3.63;;
31782;SDS011;18351;47.560;9.708;2023-08-31T02:35:50;5.47;;;4.25;;
31782;SDS011;18351;47.560;9.708;2023-08-31T02:38:15;4.20;;;2.97;;
31782;SDS011;18351;47.560;9.708;2023-08-31T02:40:41;5.18;;;3.92;;
31782;SDS011;18351;47.560;9.708;2023-08-31T02:43:07;4.50;;;3.45;;
31782;SDS011;18351;47.560;9.708;2023-08-31T02:45:32;4.18;;;3.10;;
31782;SDS011;18351;47.560;9.708;2023-08-31T02:47:58;3.45;;;3.13;;
31782;SDS011;18351;47.560;9.708;2023-08-31T02:50:23;3.13;;;2.72;;
31782;SDS011;18351;47.560;9.708;2023-08-31T02:52:49;3.15;;;2.85;;
31782;SDS011;18351;47.560;9.708;2023-08-31T02:55:15;4.60;;;2.95;;
31782;SDS011;18351;47.560;9.708;2023-08-31T02:57:40;4.30;;;3.13;;
31782;SDS011;18351;47.560;9.708;2023-08-31T03:00:06;3.92;;;2.90;;
31782;SDS011;18351;47.560;9.708;2023-08-31T03:02:38;3.33;;;2.67;;
31782;SDS011;18351;47.560;9.708;2023-08-31T03:05:04;3.60;;;2.95;;
31782;SDS011;18351;47.560;9.708;2023-08-31T03:07:29;3.60;;;2.95;;
31782;SDS011;18351;47.560;9.708;2023-08-31T03:09:55;4.40;;;3.60;;
31782;SDS011;18351;47.560;9.708;2023-08-31T03:12:20;3.50;;;3.05;;
31782;SDS011;18351;47.560;9.708;2023-08-31T03:14:46;4.15;;;3.30;;
31782;SDS011;18351;47.560;9.708;2023-08-31T03:17:12;3.85;;;3.40;;
31782;SDS011;18351;47.560;9.708;2023-08-31T03:19:38;4.05;;;3.63;;
31782;SDS011;18351;47.560;9.708;2023-08-31T03:22:03;5.35;;;3.80;;
31782;SDS011;18351;47.560;9.708;2023-08-31T03:24:29;6.75;;;4.40;;
31782;SDS011;18351;47.560;9.708;2023-08-31T03:26:56;8.20;;;3.88;;
31782;SDS011;18351;47.560;9.708;2023-08-31T03:29:21;6.15;;;4.70;;
31782;SDS011;18351;47.560;9.708;2023-08-31T03:31:47;7.30;;;4.93;;
31782;SDS011;18351;47.560;9.708;2023-08-31T03:34:12;7.50;;;3.78;;
31782;SDS011;18351;47.560;9.708;2023-08-31T03:36:38;8.30;;;4.32;;
31782;SDS011;18351;47.560;9.708;2023-08-31T03:39:04;6.28;;;4.60;;
31782;SDS011;18351;47.560;9.708;2023-08-31T03:41:29;7.55;;;4.35;;
31782;SDS011;18351;47.560;9.708;2023-08-31T03:43:55;6.50;;;4.57;;
31782;SDS011;18351;47.560;9.708;2023-08-31T03:46:21;5.30;;;4.80;;
31782;SDS011;18351;47.560;9.708;2023-08-31T03:48:46;6.00;;;5.20;;
31782;SDS011;18351;47.560;9.708;2023-08-31T03:51:12;6.22;;;5.05;;
31782;SDS011;18351;47.560;9.708;2023-08-31T03:53:37;6.57;;;5.40;;
31782;SDS011;18351;47.560;9.708;2023-08-31T03:56:03;6.25;;;5.15;;
31782;SDS011;18351;47.560;9.708;2023-08-31T03:58:29;6.80;;;5.53;;
31782;SDS011;18351;47.560;9.708;2023-08-31T04:00:55;6.03;;;5.32;;
31782;SDS011;18351;47.560;9.708;2023-08-31T04:03:21;8.90;;;5.72;;
31782;SDS011;18351;47.560;9.708;2023-08-31T04:05:47;7.38;;;5.78;;
31782;SDS011;18351;47.560;9.708;2023-08-31T04:08:12;7.00;;;5.63;;
31782;SDS011;18351;47.560;9.708;2023-08-31T04:10:38;6.47;;;5.65;;
31782;SDS011;18351;47.560;9.708;2023-08-31T04:13:04;5.68;;;4.80;;
31782;SDS011;18351;47.560;9.708;2023-08-31T04:15:29;5.78;;;5.10;;
31782;SDS011;18351;47.560;9.708;2023-08-31T04:17:56;5.82;;;5.00;;
31782;SDS011;18351;47.560;9.708;2023-08-31T04:20:21;6.88;;;4.72;;
31782;SDS011;18351;47.560;9.708;2023-08-31T04:22:47;8.98;;;5.45;;
31782;SDS011;18351;47.560;9.708;2023-08-31T04:25:13;6.55;;;4.85;;
31782;SDS011;18351;47.560;9.708;2023-08-31T04:27:39;6.38;;;5.00;;
31782;SDS011;18351;47.560;9.708;2023-08-31T04:30:05;8.30;;;4.95;;
31782;SDS011;18351;47.560;9.708;2023-08-31T04:32:32;6.72;;;4.90;;
31782;SDS011;18351;47.560;9.708;2023-08-31T04:34:57;5.32;;;4.82;;
31782;SDS011;18351;47.560;9.708;2023-08-31T04:37:23;9.27;;;5.13;;
31782;SDS011;18351;47.560;9.708;2023-08-31T04:39:48;6.20;;;5.25;;
31782;SDS011;18351;47.560;9.708;2023-08-31T04:42:14;6.43;;;5.00;;
31782;SDS011;18351;47.560;9.708;2023-08-31T04:44:41;5.90;;;5.30;;
31782;SDS011;18351;47.560;9.708;2023-08-31T04:47:07;7.65;;;4.85;;
31782;SDS011;18351;47.560;9.708;2023-08-31T04:49:33;5.68;;;4.80;;
31782;SDS011;18351;47.560;9.708;2023-08-31T04:51:58;6.32;;;5.35;;
31782;SDS011;18351;47.560;9.708;2023-08-31T04:54:24;6.93;;;5.28;;
31782;SDS011;18351;47.560;9.708;2023-08-31T04:56:50;6.20;;;5.03;;
31782;SDS011;18351;47.560;9.708;2023-08-31T04:59:16;8.60;;;5.40;;
31782;SDS011;18351;47.560;9.708;2023-08-31T05:01:41;6.70;;;5.20;;
31782;SDS011;18351;47.560;9.708;2023-08-31T05:04:07;9.35;;;5.20;;
31782;SDS011;18351;47.560;9.708;2023-08-31T05:06:32;6.68;;;5.60;;
31782;SDS011;18351;47.560;9.708;2023-08-31T05:08:58;7.07;;;5.55;;
31782;SDS011;18351;47.560;9.708;2023-08-31T05:11:23;8.02;;;6.22;;
31782;SDS011;18351;47.560;9.708;2023-08-31T05:13:49;7.30;;;5.90;;
31782;SDS011;18351;47.560;9.708;2023-08-31T05:16:14;7.00;;;5.85;;
31782;SDS011;18351;47.560;9.708;2023-08-31T05:18:40;6.75;;;5.53;;
31782;SDS011;18351;47.560;9.708;2023-08-31T05:21:06;11.95;;;6.90;;
31782;SDS011;18351;47.560;9.708;2023-08-31T05:23:31;6.63;;;5.80;;
31782;SDS011;18351;47.560;9.708;2023-08-31T05:25:57;6.68;;;5.97;;
31782;SDS011;18351;47.560;9.708;2023-08-31T05:28:23;12.75;;;5.70;;
31782;SDS011;18351;47.560;9.708;2023-08-31T05:30:50;7.45;;;5.80;;
31782;SDS011;18351;47.560;9.708;2023-08-31T05:33:17;7.03;;;5.47;;
31782;SDS011;18351;47.560;9.708;2023-08-31T05:35:43;7.68;;;5.88;;
31782;SDS011;18351;47.560;9.708;2023-08-31T05:38:08;7.07;;;5.80;;
31782;SDS011;18351;47.560;9.708;2023-08-31T05:40:34;6.10;;;5.50;;
31782;SDS011;18351;47.560;9.708;2023-08-31T05:42:59;7.15;;;5.60;;
31782;SDS011;18351;47.560;9.708;2023-08-31T05:45:25;6.97;;;5.60;;
31782;SDS011;18351;47.560;9.708;2023-08-31T05:47:51;7.93;;;5.78;;
31782;SDS011;18351;47.560;9.708;2023-08-31T05:50:16;7.13;;;5.60;;
31782;SDS011;18351;47.560;9.708;2023-08-31T05:52:42;6.88;;;5.47;;
31782;SDS011;18351;47.560;9.708;2023-08-31T05:55:09;6.50;;;4.95;;
31782;SDS011;18351;47.560;9.708;2023-08-31T05:57:35;8.02;;;5.43;;
31782;SDS011;18351;47.560;9.708;2023-08-31T06:00:00;7.53;;;5.28;;
31782;SDS011;18351;47.560;9.708;2023-08-31T06:02:26;6.60;;;5.35;;
31782;SDS011;18351;47.560;9.708;2023-08-31T06:04:52;6.80;;;5.78;;
31782;SDS011;18351;47.560;9.708;2023-08-31T06:07:18;6.45;;;5.55;;
31782;SDS011;18351;47.560;9.708;2023-08-31T06:09:43;7.22;;;5.30;;
31782;SDS011;18351;47.560;9.708;2023-08-31T06:12:09;6.32;;;4.90;;
31782;SDS011;18351;47.560;9.708;2023-08-31T06:14:34;6.43;;;5.43;;
31782;SDS011;18351;47.560;9.708;2023-08-31T06:17:00;6.88;;;5.43;;
31782;SDS011;18351;47.560;9.708;2023-08-31T06:19:26;6.90;;;5.75;;
31782;SDS011;18351;47.560;9.708;2023-08-31T06:21:51;6.07;;;5.47;;
31782;SDS011;18351;47.560;9.708;2023-08-31T06:24:17;5.85;;;4.78;;
31782;SDS011;18351;47.560;9.708;2023-08-31T06:26:42;6.63;;;5.78;;
31782;SDS011;18351;47.560;9.708;2023-08-31T06:29:08;6.10;;;4.43;;
31782;SDS011;18351;47.560;9.708;2023-08-31T06:31:35;5.55;;;4.72;;
31782;SDS011;18351;47.560;9.708;2023-08-31T06:34:01;6.65;;;4.82;;
31782;SDS011;18351;47.560;9.708;2023-08-31T06:36:27;5.50;;;4.40;;
31782;SDS011;18351;47.560;9.708;2023-08-31T06:38:53;6.72;;;4.75;;
31782;SDS011;18351;47.560;9.708;2023-08-31T06:41:18;8.23;;;4.68;;
31782;SDS011;18351;47.560;9.708;2023-08-31T06:43:44;7.55;;;4.88;;
31782;SDS011;18351;47.560;9.708;2023-08-31T06:46:10;4.80;;;3.78;;
31782;SDS011;18351;47.560;9.708;2023-08-31T06:48:36;4.30;;;3.55;;
31782;SDS011;18351;47.560;9.708;2023-08-31T06:51:02;6.40;;;4.07;;
31782;SDS011;18351;47.560;9.708;2023-08-31T06:53:28;6.95;;;4.68;;
31782;SDS011;18351;47.560;9.708;2023-08-31T06:55:59;5.28;;;4.72;;
31782;SDS011;18351;47.560;9.708;2023-08-31T06:58:24;6.80;;;4.68;;
31782;SDS011;18351;47.560;9.708;2023-08-31T07:00:50;5.60;;;4.50;;
31782;SDS011;18351;47.560;9.708;2023-08-31T07:03:15;6.13;;;4.45;;
31782;SDS011;18351;47.560;9.708;2023-08-31T07:05:42;10.68;;;4.85;;
31782;SDS011;18351;47.560;9.708;2023-08-31T07:08:08;6.03;;;4.60;;
31782;SDS011;18351;47.560;9.708;2023-08-31T07:10:34;6.03;;;4.13;;
31782;SDS011;18351;47.560;9.708;2023-08-31T07:13:03;4.95;;;4.35;;
31782;SDS011;18351;47.560;9.708;2023-08-31T07:15:29;4.57;;;4.00;;
31782;SDS011;18351;47.560;9.708;2023-08-31T07:17:54;6.22;;;4.30;;
31782;SDS011;18351;47.560;9.708;2023-08-31T07:20:20;6.50;;;4.72;;
31782;SDS011;18351;47.560;9.708;2023-08-31T07:22:46;26.13;;;15.98;;
31782;SDS011;18351;47.560;9.708;2023-08-31T07:25:12;16.23;;;9.90;;
31782;SDS011;18351;47.560;9.708;2023-08-31T07:27:37;13.35;;;8.23;;
31782;SDS011;18351;47.560;9.708;2023-08-31T07:30:03;11.00;;;7.57;;
31782;SDS011;18351;47.560;9.708;2023-08-31T07:32:30;7.35;;;4.82;;
31782;SDS011;18351;47.560;9.708;2023-08-31T07:34:56;6.63;;;5.00;;
31782;SDS011;18351;47.560;9.708;2023-08-31T07:37:22;6.90;;;4.50;;
31782;SDS011;18351;47.560;9.708;2023-08-31T07:39:47;5.90;;;3.90;;
31782;SDS011;18351;47.560;9.708;2023-08-31T07:42:13;6.40;;;3.50;;
31782;SDS011;18351;47.560;9.708;2023-08-31T07:44:38;3.83;;;2.95;;
31782;SDS011;18351;47.560;9.708;2023-08-31T07:47:06;3.75;;;3.35;;
31782;SDS011;18351;47.560;9.708;2023-08-31T07:49:32;4.82;;;3.60;;
31782;SDS011;18351;47.560;9.708;2023-08-31T07:51:57;5.25;;;2.90;;
31782;SDS011;18351;47.560;9.708;2023-08-31T07:54:23;3.90;;;3.00;;
31782;SDS011;18351;47.560;9.708;2023-08-31T07:56:49;4.10;;;3.30;;
31782;SDS011;18351;47.560;9.708;2023-08-31T07:59:15;3.65;;;3.28;;
31782;SDS011;18351;47.560;9.708;2023-08-31T08:01:42;4.57;;;2.97;;
31782;SDS011;18351;47.560;9.708;2023-08-31T08:04:07;6.10;;;3.50;;
31782;SDS011;18351;47.560;9.708;2023-08-31T08:06:33;4.80;;;3.22;;
31782;SDS011;18351;47.560;9.708;2023-08-31T08:08:58;3.47;;;2.42;;
31782;SDS011;18351;47.560;9.708;2023-08-31T08:11:24;6.65;;;2.70;;
31782;SDS011;18351;47.560;9.708;2023-08-31T08:13:49;4.30;;;2.55;;
31782;SDS011;18351;47.560;9.708;2023-08-31T08:16:15;4.00;;;2.63;;
31782;SDS011;18351;47.560;9.708;2023-08-31T08:18:40;2.80;;;2.40;;
31782;SDS011;18351;47.560;9.708;2023-08-31T08:21:06;3.00;;;2.70;;
31782;SDS011;18351;47.560;9.708;2023-08-31T08:23:32;3.78;;;2.33;;
31782;SDS011;18351;47.560;9.708;2023-08-31T08:25:58;4.22;;;2.53;;
31782;SDS011;18351;47.560;9.708;2023-08-31T08:28:26;4.15;;;2.40;;
31782;SDS011;18351;47.560;9.708;2023-08-31T08:30:53;5.40;;;2.65;;
31782;SDS011;18351;47.560;9.708;2023-08-31T08:33:18;3.85;;;2.67;;
31782;SDS011;18351;47.560;9.708;2023-08-31T08:35:44;3.97;;;2.45;;
31782;SDS011;18351;47.560;9.708;2023-08-31T08:38:09;3.78;;;2.28;;
31782;SDS011;18351;47.560;9.708;2023-08-31T08:40:35;3.78;;;2.30;;
31782;SDS011;18351;47.560;9.708;2023-08-31T08:43:01;2.72;;;2.20;;
31782;SDS011;18351;47.560;9.708;2023-08-31T08:45:30;6.30;;;2.47;;
31782;SDS011;18351;47.560;9.708;2023-08-31T08:48:07;5.72;;;2.50;;
31782;SDS011;18351;47.560;9.708;2023-08-31T08:50:34;4.40;;;2.60;;
31782;SDS011;18351;47.560;9.708;2023-08-31T08:53:01;2.33;;;2.13;;
31782;SDS011;18351;47.560;9.708;2023-08-31T08:55:28;2.28;;;2.08;;
31782;SDS011;18351;47.560;9.708;2023-08-31T08:57:54;3.55;;;2.20;;
31782;SDS011;18351;47.560;9.708;2023-08-31T09:00:20;3.83;;;2.80;;
31782;SDS011;18351;47.560;9.708;2023-08-31T09:02:46;3.00;;;2.50;;
31782;SDS011;18351;47.560;9.708;2023-08-31T09:05:11;2.45;;;1.92;;
31782;SDS011;18351;47.560;9.708;2023-08-31T09:07:38;3.60;;;2.40;;
31782;SDS011;18351;47.560;9.708;2023-08-31T09:10:24;4.45;;;2.65;;
31782;SDS011;18351;47.560;9.708;2023-08-31T09:12:57;4.95;;;2.72;;
31782;SDS011;18351;47.560;9.708;2023-08-31T09:15:24;5.43;;;2.00;;
31782;SDS011;18351;47.560;9.708;2023-08-31T09:17:50;4.30;;;2.28;;
31782;SDS011;18351;47.560;9.708;2023-08-31T09:20:16;3.13;;;2.28;;
31782;SDS011;18351;47.560;9.708;2023-08-31T09:22:42;4.35;;;2.75;;
31782;SDS011;18351;47.560;9.708;2023-08-31T09:25:11;4.63;;;2.00;;
31782;SDS011;18351;47.560;9.708;2023-08-31T09:27:37;5.18;;;2.28;;
31782;SDS011;18351;47.560;9.708;2023-08-31T09:30:04;4.63;;;2.03;;
31782;SDS011;18351;47.560;9.708;2023-08-31T09:32:31;2.70;;;1.88;;
31782;SDS011;18351;47.560;9.708;2023-08-31T09:34:56;4.78;;;1.98;;
31782;SDS011;18351;47.560;9.708;2023-08-31T09:37:27;3.10;;;2.17;;
31782;SDS011;18351;47.560;9.708;2023-08-31T09:39:53;2.97;;;2.13;;
31782;SDS011;18351;47.560;9.708;2023-08-31T09:42:20;3.42;;;2.10;;
31782;SDS011;18351;47.560;9.708;2023-08-31T09:44:45;2.53;;;1.90;;
31782;SDS011;18351;47.560;9.708;2023-08-31T09:47:14;3.60;;;1.95;;
31782;SDS011;18351;47.560;9.708;2023-08-31T09:49:41;6.63;;;2.30;;
31782;SDS011;18351;47.560;9.708;2023-08-31T09:52:08;4.72;;;2.10;;
31782;SDS011;18351;47.560;9.708;2023-08-31T09:54:35;4.25;;;2.35;;
31782;SDS011;18351;47.560;9.708;2023-08-31T09:57:01;4.00;;;2.10;;
31782;SDS011;18351;47.560;9.708;2023-08-31T09:59:27;14.93;;;2.70;;
31782;SDS011;18351;47.560;9.708;2023-08-31T10:01:53;3.33;;;2.00;;
31782;SDS011;18351;47.560;9.708;2023-08-31T10:04:21;3.47;;;2.13;;
31782;SDS011;18351;47.560;9.708;2023-08-31T10:06:47;6.97;;;2.47;;
31782;SDS011;18351;47.560;9.708;2023-08-31T10:09:14;3.40;;;2.25;;
31782;SDS011;18351;47.560;9.708;2023-08-31T10:11:41;7.35;;;2.90;;
31782;SDS011;18351;47.560;9.708;2023-08-31T10:14:10;6.50;;;2.30;;
31782;SDS011;18351;47.560;9.708;2023-08-31T10:16:39;3.92;;;2.25;;
31782;SDS011;18351;47.560;9.708;2023-08-31T10:19:04;4.45;;;2.40;;
31782;SDS011;18351;47.560;9.708;2023-08-31T10:21:30;3.58;;;2.10;;
31782;SDS011;18351;47.560;9.708;2023-08-31T10:23:56;4.28;;;2.30;;
31782;SDS011;18351;47.560;9.708;2023-08-31T10:26:23;2.22;;;1.77;;
31782;SDS011;18351;47.560;9.708;2023-08-31T10:28:53;4.05;;;1.85;;
31782;SDS011;18351;47.560;9.708;2023-08-31T10:31:19;5.43;;;2.30;;
31782;SDS011;18351;47.560;9.708;2023-08-31T10:33:58;9.40;;;3.65;;
31782;SDS011;18351;47.560;9.708;2023-08-31T10:36:35;7.45;;;1.90;;
31782;SDS011;18351;47.560;9.708;2023-08-31T10:41:35;9.80;;;5.97;;
31782;SDS011;18351;47.560;9.708;2023-08-31T10:44:01;7.13;;;2.30;;
31782;SDS011;18351;47.560;9.708;2023-08-31T10:46:36;4.25;;;2.15;;
31782;SDS011;18351;47.560;9.708;2023-08-31T10:51:40;4.57;;;2.40;;
31782;SDS011;18351;47.560;9.708;2023-08-31T10:54:10;6.80;;;2.45;;
31782;SDS011;18351;47.560;9.708;2023-08-31T10:56:52;5.20;;;2.70;;
31782;SDS011;18351;47.560;9.708;2023-08-31T11:05:14;3.80;;;2.22;;
31782;SDS011;18351;47.560;9.708;2023-08-31T11:07:43;6.85;;;2.38;;
31782;SDS011;18351;47.560;9.708;2023-08-31T11:10:14;5.65;;;2.50;;
31782;SDS011;18351;47.560;9.708;2023-08-31T11:12:53;5.50;;;2.13;;
31782;SDS011;18351;47.560;9.708;2023-08-31T11:15:20;9.02;;;2.30;;
31782;SDS011;18351;47.560;9.708;2023-08-31T11:17:49;4.32;;;2.42;;
31782;SDS011;18351;47.560;9.708;2023-08-31T11:20:18;3.95;;;2.00;;
31782;SDS011;18351;47.560;9.708;2023-08-31T11:22:46;6.68;;;2.47;;
31782;SDS011;18351;47.560;9.708;2023-08-31T11:25:18;4.72;;;2.05;;
31782;SDS011;18351;47.560;9.708;2023-08-31T11:30:48;7.60;;;2.50;;
31782;SDS011;18351;47.560;9.708;2023-08-31T11:33:13;5.30;;;2.22;;
31782;SDS011;18351;47.560;9.708;2023-08-31T11:35:40;6.18;;;2.38;;
31782;SDS011;18351;47.560;9.708;2023-08-31T11:38:09;4.40;;;1.98;;
31782;SDS011;18351;47.560;9.708;2023-08-31T11:40:35;4.72;;;2.22;;
31782;SDS011;18351;47.560;9.708;2023-08-31T11:43:02;8.38;;;2.38;;
31782;SDS011;18351;47.560;9.708;2023-08-31T11:45:30;3.03;;;2.15;;
31782;SDS011;18351;47.560;9.708;2023-08-31T11:47:57;4.40;;;2.00;;
31782;SDS011;18351;47.560;9.708;2023-08-31T11:50:23;6.55;;;2.22;;
31782;SDS011;18351;47.560;9.708;2023-08-31T11:52:50;7.55;;;2.63;;
31782;SDS011;18351;47.560;9.708;2023-08-31T11:55:18;4.70;;;2.40;;
31782;SDS011;18351;47.560;9.708;2023-08-31T12:00:19;3.80;;;2.00;;
31782;SDS011;18351;47.560;9.708;2023-08-31T12:02:57;8.55;;;2.47;;
31782;SDS011;18351;47.560;9.708;2023-08-31T12:05:23;5.57;;;2.15;;
31782;SDS011;18351;47.560;9.708;2023-08-31T12:07:48;4.38;;;2.35;;
31782;SDS011;18351;47.560;9.708;2023-08-31T12:10:16;5.60;;;2.50;;
31782;SDS011;18351;47.560;9.708;2023-08-31T12:12:41;7.47;;;2.60;;
31782;SDS011;18351;47.560;9.708;2023-08-31T12:15:07;7.57;;;2.67;;
31782;SDS011;18351;47.560;9.708;2023-08-31T12:17:36;6.97;;;2.80;;
31782;SDS011;18351;47.560;9.708;2023-08-31T12:20:03;7.28;;;2.47;;
31782;SDS011;18351;47.560;9.708;2023-08-31T12:22:30;5.22;;;2.28;;
31782;SDS011;18351;47.560;9.708;2023-08-31T12:24:55;4.82;;;2.10;;
31782;SDS011;18351;47.560;9.708;2023-08-31T12:27:21;3.05;;;1.85;;
31782;SDS011;18351;47.560;9.708;2023-08-31T12:29:46;4.22;;;2.00;;
31782;SDS011;18351;47.560;9.708;2023-08-31T12:32:12;4.25;;;2.30;;
31782;SDS011;18351;47.560;9.708;2023-08-31T12:34:37;3.63;;;2.30;;
31782;SDS011;18351;47.560;9.708;2023-08-31T12:37:03;4.18;;;2.38;;
31782;SDS011;18351;47.560;9.708;2023-08-31T12:39:29;7.10;;;2.30;;
31782;SDS011;18351;47.560;9.708;2023-08-31T12:41:55;4.18;;;2.17;;
31782;SDS011;18351;47.560;9.708;2023-08-31T12:44:21;4.97;;;1.90;;
31782;SDS011;18351;47.560;9.708;2023-08-31T12:46:47;5.00;;;2.22;;
31782;SDS011;18351;47.560;9.708;2023-08-31T12:49:12;10.70;;;4.82;;
31782;SDS011;18351;47.560;9.708;2023-08-31T12:51:38;6.57;;;2.35;;
31782;SDS011;18351;47.560;9.708;2023-08-31T12:54:03;5.03;;;2.47;;
31782;SDS011;18351;47.560;9.708;2023-08-31T12:56:30;6.00;;;2.10;;
31782;SDS011;18351;47.560;9.708;2023-08-31T12:58:55;5.53;;;2.42;;
31782;SDS011;18351;47.560;9.708;2023-08-31T13:01:21;2.80;;;1.83;;
31782;SDS011;18351;47.560;9.708;2023-08-31T13:03:48;4.35;;;2.00;;
31782;SDS011;18351;47.560;9.708;2023-08-31T13:06:14;3.50;;;2.05;;
31782;SDS011;18351;47.560;9.708;2023-08-31T13:08:41;9.88;;;2.17;;
31782;SDS011;18351;47.560;9.708;2023-08-31T13:11:08;3.58;;;1.88;;
31782;SDS011;18351;47.560;9.708;2023-08-31T13:13:34;9.05;;;2.67;;
31782;SDS011;18351;47.560;9.708;2023-08-31T13:16:00;5.05;;;2.50;;
31782;SDS011;18351;47.560;9.708;2023-08-31T13:18:26;5.40;;;1.70;;
31782;SDS011;18351;47.560;9.708;2023-08-31T13:20:52;6.07;;;2.20;;
31782;SDS011;18351;47.560;9.708;2023-08-31T13:23:18;3.45;;;2.15;;
31782;SDS011;18351;47.560;9.708;2023-08-31T13:25:45;5.88;;;2.60;;
31782;SDS011;18351;47.560;9.708;2023-08-31T13:28:11;4.03;;;2.28;;
31782;SDS011;18351;47.560;9.708;2023-08-31T13:30:37;3.25;;;1.95;;
31782;SDS011;18351;47.560;9.708;2023-08-31T13:33:03;4.63;;;2.10;;
31782;SDS011;18351;47.560;9.708;2023-08-31T13:35:31;5.75;;;2.47;;
31782;SDS011;18351;47.560;9.708;2023-08-31T13:37:57;6.63;;;2.10;;
31782;SDS011;18351;47.560;9.708;2023-08-31T13:40:23;5.72;;;2.25;;
31782;SDS011;18351;47.560;9.708;2023-08-31T13:42:52;3.15;;;1.60;;
31782;SDS011;18351;47.560;9.708;2023-08-31T13:45:30;5.38;;;2.25;;
31782;SDS011;18351;47.560;9.708;2023-08-31T13:47:59;4.30;;;2.13;;
31782;SDS011;18351;47.560;9.708;2023-08-31T13:50:28;5.63;;;2.30;;
31782;SDS011;18351;47.560;9.708;2023-08-31T13:52:54;6.50;;;2.60;;
31782;SDS011;18351;47.560;9.708;2023-08-31T13:55:19;7.05;;;2.50;;
31782;SDS011;18351;47.560;9.708;2023-08-31T13:57:45;4.28;;;2.53;;
31782;SDS011;18351;47.560;9.708;2023-08-31T14:00:11;4.22;;;1.90;;
31782;SDS011;18351;47.560;9.708;2023-08-31T14:02:37;3.67;;;2.75;;
31782;SDS011;18351;47.560;9.708;2023-08-31T14:05:04;3.28;;;2.25;;
31782;SDS011;18351;47.560;9.708;2023-08-31T14:07:31;4.45;;;2.17;;
31782;SDS011;18351;47.560;9.708;2023-08-31T14:10:07;5.03;;;2.22;;
31782;SDS011;18351;47.560;9.708;2023-08-31T14:12:33;6.22;;;2.25;;
31782;SDS011;18351;47.560;9.708;2023-08-31T14:14:59;3.45;;;2.28;;
31782;SDS011;18351;47.560;9.708;2023-08-31T14:17:28;6.05;;;2.30;;
31782;SDS011;18351;47.560;9.708;2023-08-31T14:19:54;5.70;;;2.42;;
31782;SDS011;18351;47.560;9.708;2023-08-31T14:22:19;4.43;;;1.90;;
31782;SDS011;18351;47.560;9.708;2023-08-31T14:24:45;2.60;;;2.03;;
31782;SDS011;18351;47.560;9.708;2023-08-31T14:27:11;5.35;;;2.30;;
31782;SDS011;18351;47.560;9.708;2023-08-31T14:29:37;4.57;;;2.25;;
31782;SDS011;18351;47.560;9.708;2023-08-31T14:32:02;5.65;;;2.70;;
31782;SDS011;18351;47.560;9.708;2023-08-31T14:34:28;5.43;;;2.40;;
31782;SDS011;18351;47.560;9.708;2023-08-31T14:36:53;3.55;;;2.20;;
31782;SDS011;18351;47.560;9.708;2023-08-31T14:39:22;5.57;;;2.10;;
31782;SDS011;18351;47.560;9.708;2023-08-31T14:41:49;3.45;;;1.90;;
31782;SDS011;18351;47.560;9.708;2023-08-31T14:44:15;3.80;;;2.22;;
31782;SDS011;18351;47.560;9.708;2023-08-31T14:46:40;3.67;;;2.50;;
31782;SDS011;18351;47.560;9.708;2023-08-31T14:49:06;6.25;;;2.47;;
31782;SDS011;18351;47.560;9.708;2023-08-31T14:51:32;6.68;;;2.42;;
31782;SDS011;18351;47.560;9.708;2023-08-31T14:53:58;3.45;;;2.05;;
31782;SDS011;18351;47.560;9.708;2023-08-31T14:56:23;4.78;;;2.42;;
31782;SDS011;18351;47.560;9.708;2023-08-31T14:58:49;5.22;;;2.92;;
31782;SDS011;18351;47.560;9.708;2023-08-31T15:01:14;4.18;;;2.33;;
31782;SDS011;18351;47.560;9.708;2023-08-31T15:03:40;3.70;;;2.03;;
31782;SDS011;18351;47.560;9.708;2023-08-31T15:06:05;4.15;;;2.15;;
31782;SDS011;18351;47.560;9.708;2023-08-31T15:08:35;5.30;;;2.50;;
31782;SDS011;18351;47.560;9.708;2023-08-31T15:11:05;4.07;;;2.33;;
31782;SDS011;18351;47.560;9.708;2023-08-31T15:13:30;4.95;;;2.40;;